Time;durP1;ratioP1;P1;durP2;ratioP2;P2;SDS_P1;SDS_P2;PMS_P1;PMS_P2;Temp;Humidity;BMP_temperature;BMP_pressure;BME280_temperature;BME280_humidity;BME280_pressure;Samples;Min_cycle;Max_cycle;Signal;HPM_P1;HPM_P2
2023/06/06 00:02:16;;;;;;;3.10;2.90;;;;;;;17.84;89.01;95379.03;4377608;32;20172;-63
2023/06/06 00:04:45;;;;;;;2.90;2.73;;;;;;;17.68;89.48;95381.59;4385872;32;20231;-63
2023/06/06 00:07:12;;;;;;;2.30;2.10;;;;;;;17.68;89.49;95381.59;4347228;32;20242;-63
2023/06/06 00:09:40;;;;;;;2.20;2.10;;;;;;;17.82;89.09;95379.38;4378451;32;20181;-63
2023/06/06 00:12:13;;;;;;;3.37;3.17;;;;;;;17.80;88.84;95376.25;4375117;32;20189;-63
2023/06/06 00:14:41;;;;;;;3.03;2.93;;;;;;;17.78;89.11;95377.69;4372596;32;20203;-63
2023/06/06 00:17:08;;;;;;;2.63;2.53;;;;;;;17.70;89.03;95374.00;4342949;32;20192;-64
2023/06/06 00:19:40;;;;;;;3.23;3.13;;;;;;;17.55;89.87;95366.63;4364079;32;20211;-63
2023/06/06 00:22:09;;;;;;;3.93;3.63;;;;;;;17.59;89.75;95362.16;4376243;32;20211;-63
2023/06/06 00:24:35;;;;;;;2.43;2.33;;;;;;;17.64;89.49;95367.31;4375911;32;20189;-63
2023/06/06 00:27:03;;;;;;;2.87;2.77;;;;;;;17.83;88.96;95366.75;4387230;32;20234;-64
2023/06/06 00:29:29;;;;;;;3.13;2.27;;;;;;;17.70;89.34;95365.19;4360651;32;20264;-64
2023/06/06 00:31:56;;;;;;;3.20;3.00;;;;;;;17.76;89.15;95361.94;4369269;32;20252;-64
2023/06/06 00:34:23;;;;;;;2.90;2.80;;;;;;;17.80;88.75;95364.72;4370456;32;20216;-63
2023/06/06 00:36:48;;;;;;;2.73;2.63;;;;;;;17.81;88.82;95367.06;4370161;32;20236;-63
2023/06/06 00:39:15;;;;;;;3.00;2.73;;;;;;;17.84;88.71;95361.03;4376069;32;20219;-63
2023/06/06 00:41:41;;;;;;;2.93;2.07;;;;;;;17.72;89.31;95358.34;4370307;32;20243;-63
2023/06/06 00:44:08;;;;;;;2.27;2.17;;;;;;;17.47;89.97;95359.47;4366637;32;20306;-63
2023/06/06 00:46:35;;;;;;;3.67;3.33;;;;;;;17.40;90.84;95353.88;4366394;32;20283;-63
2023/06/06 00:49:04;;;;;;;5.00;3.67;;;;;;;17.40;90.88;95360.03;4364177;32;20270;-63
2023/06/06 00:51:33;;;;;;;1.87;1.83;;;;;;;17.41;91.06;95356.25;4361766;32;20255;-64
2023/06/06 00:54:00;;;;;;;2.37;2.27;;;;;;;17.51;90.03;95357.66;4329424;32;20215;-63
2023/06/06 00:56:33;;;;;;;3.63;3.33;;;;;;;17.56;90.43;95351.31;4357870;32;20227;-64
2023/06/06 00:58:59;;;;;;;2.20;2.10;;;;;;;17.46;90.34;95352.53;4369741;32;20211;-63
2023/06/06 01:01:33;;;;;;;3.80;3.17;;;;;;;17.53;90.39;95356.22;4380307;32;20211;-63
2023/06/06 01:04:02;;;;;;;3.43;3.23;;;;;;;17.49;90.51;95354.53;4328045;32;20298;-63
2023/06/06 01:06:33;;;;;;;3.60;3.33;;;;;;;17.52;90.28;95356.56;4350913;32;20192;-63
2023/06/06 01:09:04;;;;;;;3.00;2.80;;;;;;;17.66;89.88;95358.94;4353632;32;20213;-63
2023/06/06 01:11:54;;;;;;;3.83;3.63;;;;;;;17.68;89.76;95359.37;4369693;32;20204;-63
2023/06/06 01:14:33;;;;;;;4.23;3.57;;;;;;;17.64;89.66;95364.66;4356392;32;20189;-63
2023/06/06 01:17:07;;;;;;;2.50;2.40;;;;;;;17.72;89.22;95365.63;4360062;32;20188;-63
2023/06/06 01:19:37;;;;;;;3.23;3.03;;;;;;;17.66;89.44;95361.63;4361554;32;20187;-63
2023/06/06 01:22:04;;;;;;;2.63;2.43;;;;;;;17.81;89.08;95361.72;4378891;32;20219;-63
2023/06/06 01:24:30;;;;;;;2.93;2.73;;;;;;;17.72;89.02;95363.72;4376972;32;20329;-63
2023/06/06 01:26:57;;;;;;;3.13;3.03;;;;;;;17.79;89.00;95366.63;4362558;32;20204;-63
2023/06/06 01:29:24;;;;;;;3.07;2.87;;;;;;;17.86;88.66;95366.06;4368615;32;20296;-64
2023/06/06 01:32:28;;;;;;;2.47;2.27;;;;;;;17.66;89.50;95367.78;4361031;32;20196;-63
2023/06/06 01:35:31;;;;;;;2.20;2.10;;;;;;;17.84;88.77;95369.09;4363201;32;20201;-64
2023/06/06 01:38:07;;;;;;;2.23;2.13;;;;;;;17.68;89.22;95370.88;4348840;32;20326;-64
2023/06/06 01:40:38;;;;;;;2.77;2.67;;;;;;;17.60;89.71;95370.97;4356233;32;20197;-64
2023/06/06 01:43:07;;;;;;;2.50;2.40;;;;;;;17.51;90.15;95366.50;4346899;32;20216;-64
2023/06/06 01:45:35;;;;;;;2.57;2.37;;;;;;;17.49;90.26;95376.00;4337587;32;20244;-63
2023/06/06 01:48:03;;;;;;;2.30;2.30;;;;;;;17.55;90.10;95366.63;4352994;32;20185;-63
2023/06/06 01:50:32;;;;;;;2.03;1.93;;;;;;;17.61;89.59;95359.13;4369119;32;20215;-64
2023/06/06 01:52:59;;;;;;;2.17;2.07;;;;;;;17.65;89.04;95366.22;4352943;32;20246;-63
2023/06/06 01:55:25;;;;;;;2.23;2.13;;;;;;;17.72;89.29;95360.25;4340619;32;20193;-63
2023/06/06 01:57:51;;;;;;;2.23;2.13;;;;;;;17.61;88.89;95361.81;4353571;32;20235;-63
2023/06/06 02:00:17;;;;;;;3.23;3.00;;;;;;;17.69;88.93;95364.41;4342181;32;20208;-63
2023/06/06 02:02:43;;;;;;;2.90;2.70;;;;;;;17.61;88.86;95365.28;4362030;32;20209;-63
2023/06/06 02:05:09;;;;;;;2.67;2.53;;;;;;;17.49;89.39;95367.94;4373124;32;20211;-63
2023/06/06 02:07:37;;;;;;;2.47;2.30;;;;;;;17.64;88.77;95371.88;4378551;32;20236;-64
2023/06/06 02:10:04;;;;;;;3.73;2.53;;;;;;;17.61;88.66;95370.66;4381823;32;20193;-64
2023/06/06 02:12:32;;;;;;;2.67;2.57;;;;;;;17.65;88.68;95371.56;4352956;32;20256;-64
2023/06/06 02:15:04;;;;;;;2.00;1.97;;;;;;;17.73;88.25;95378.72;4342389;32;20242;-63
2023/06/06 02:17:32;;;;;;;2.70;2.17;;;;;;;17.61;88.50;95375.22;4369639;32;20246;-64
2023/06/06 02:19:59;;;;;;;2.43;2.33;;;;;;;17.72;88.21;95379.81;4351959;32;20271;-63
2023/06/06 02:22:25;;;;;;;2.70;2.60;;;;;;;17.77;88.10;95376.13;4368218;32;20231;-64
2023/06/06 02:24:52;;;;;;;2.87;2.73;;;;;;;17.57;88.95;95367.06;4358446;32;20241;-64
2023/06/06 02:27:19;;;;;;;2.13;2.03;;;;;;;17.46;89.00;95371.31;4360035;32;20207;-64
2023/06/06 02:29:46;;;;;;;3.17;3.07;;;;;;;17.51;89.46;95368.41;4374648;32;20197;-63
2023/06/06 02:32:12;;;;;;;4.17;3.07;;;;;;;17.45;89.75;95378.59;4366902;32;20196;-64
2023/06/06 02:34:39;;;;;;;2.23;2.13;;;;;;;17.37;89.20;95379.47;4370379;32;20184;-63
2023/06/06 02:37:09;;;;;;;3.37;3.17;;;;;;;17.52;89.28;95378.00;4372062;32;20202;-63
2023/06/06 02:39:39;;;;;;;2.83;2.63;;;;;;;17.45;88.83;95372.44;4358310;32;20223;-63
2023/06/06 02:42:08;;;;;;;3.23;3.10;;;;;;;17.53;89.15;95371.53;4336172;32;20212;-63
2023/06/06 02:44:38;;;;;;;2.50;2.40;;;;;;;17.51;88.48;95371.09;4378818;32;20181;-63
2023/06/06 02:47:03;;;;;;;2.63;2.43;;;;;;;17.37;89.54;95379.47;4371579;32;20200;-64
2023/06/06 02:49:31;;;;;;;3.67;3.47;;;;;;;17.24;90.02;95382.50;4371825;32;20283;-63
2023/06/06 02:52:02;;;;;;;2.70;2.60;;;;;;;17.48;88.81;95390.53;4364600;32;20262;-63
2023/06/06 02:54:28;;;;;;;2.57;2.40;;;;;;;17.31;89.73;95380.03;4376512;32;20310;-63
2023/06/06 02:56:56;;;;;;;3.00;2.83;;;;;;;17.31;89.68;95386.16;4371039;32;20249;-63
2023/06/06 02:59:24;;;;;;;3.90;3.50;;;;;;;17.32;89.76;95384.28;4371389;32;20364;-64
2023/06/06 03:01:49;;;;;;;2.07;1.97;;;;;;;17.36;89.78;95380.59;4372315;32;20189;-63
2023/06/06 03:04:15;;;;;;;2.93;2.73;;;;;;;17.44;89.66;95381.59;4351636;32;20208;-64
2023/06/06 03:06:43;;;;;;;4.80;3.57;;;;;;;17.31;89.83;95388.84;4355657;32;20284;-63
2023/06/06 03:09:09;;;;;;;2.97;2.87;;;;;;;17.33;89.83;95380.47;4345121;32;20215;-63
2023/06/06 03:11:39;;;;;;;3.20;3.00;;;;;;;17.38;89.43;95388.31;4353858;32;20216;-64
2023/06/06 03:14:30;;;;;;;3.37;3.07;;;;;;;17.44;89.31;95384.28;4370917;32;20204;-63
2023/06/06 03:16:57;;;;;;;2.63;2.47;;;;;;;17.63;88.85;95387.19;4368869;32;20189;-63
2023/06/06 03:19:24;;;;;;;3.00;2.90;;;;;;;17.50;89.29;95386.41;4368682;32;20272;-63
2023/06/06 03:21:51;;;;;;;2.53;2.43;;;;;;;17.45;88.62;95385.84;4372011;32;20238;-63
2023/06/06 03:24:19;;;;;;;1.63;1.53;;;;;;;17.62;88.55;95382.16;4354384;32;20242;-63
2023/06/06 03:26:46;;;;;;;2.20;2.10;;;;;;;17.44;88.55;95397.69;4365168;32;20189;-64
2023/06/06 03:29:13;;;;;;;2.10;2.00;;;;;;;17.42;87.35;95394.56;4366977;32;20275;-63
2023/06/06 03:31:41;;;;;;;1.93;1.83;;;;;;;17.40;88.33;95396.81;4347352;32;20290;-64
2023/06/06 03:34:11;;;;;;;2.03;1.80;;;;;;;17.34;86.79;95396.22;4360535;32;20216;-64
2023/06/06 03:36:36;;;;;;;1.40;1.37;;;;;;;17.25;86.74;95395.53;4369739;32;20305;-64
2023/06/06 03:39:04;;;;;;;0.80;0.80;;;;;;;17.37;87.22;95392.88;4376794;32;20252;-64
2023/06/06 03:41:31;;;;;;;1.37;1.27;;;;;;;17.37;86.39;95394.78;4376982;32;20192;-63
2023/06/06 03:44:00;;;;;;;2.47;2.27;;;;;;;17.36;86.33;95390.53;4364717;32;20268;-63
2023/06/06 03:46:26;;;;;;;3.37;1.60;;;;;;;17.14;86.21;95395.19;4375073;32;20206;-64
2023/06/06 03:48:53;;;;;;;1.77;1.67;;;;;;;17.17;86.06;95391.06;4377556;32;20209;-63
2023/06/06 03:51:20;;;;;;;1.00;1.00;;;;;;;16.93;85.63;95404.44;4360965;32;20196;-62
2023/06/06 03:53:48;;;;;;;3.03;1.57;;;;;;;17.01;85.16;95398.19;4361952;32;20196;-62
2023/06/06 03:56:15;;;;;;;2.03;1.90;;;;;;;17.05;86.28;95399.88;4347177;32;20184;-63
2023/06/06 03:58:43;;;;;;;1.43;1.40;;;;;;;16.94;85.88;95403.31;4377602;32;20235;-62
2023/06/06 04:01:12;;;;;;;2.13;2.03;;;;;;;17.00;86.29;95410.81;4349743;32;20240;-62
2023/06/06 04:03:40;;;;;;;1.30;1.30;;;;;;;16.95;85.81;95404.87;4353719;32;20217;-65
2023/06/06 04:06:09;;;;;;;1.20;1.20;;;;;;;16.83;85.90;95408.31;4356523;32;20199;-63
2023/06/06 04:08:35;;;;;;;1.50;1.50;;;;;;;16.83;86.75;95411.00;4340254;32;20211;-63
2023/06/06 04:11:02;;;;;;;1.73;1.63;;;;;;;16.83;86.42;95408.31;4364998;32;20188;-63
2023/06/06 04:13:29;;;;;;;1.83;1.73;;;;;;;16.82;86.39;95414.78;4366320;32;21848;-63
2023/06/06 04:15:56;;;;;;;1.13;1.13;;;;;;;16.95;86.64;95402.97;4331902;32;20193;-63
2023/06/06 04:18:22;;;;;;;1.10;1.10;;;;;;;16.95;86.04;95405.66;4376735;32;20185;-63
2023/06/06 04:20:52;;;;;;;1.50;1.40;;;;;;;16.96;85.24;95414.50;4340059;32;20207;-63
2023/06/06 04:23:20;;;;;;;1.70;1.53;;;;;;;16.84;85.23;95413.31;4368846;32;20185;-63
2023/06/06 04:25:48;;;;;;;1.33;1.33;;;;;;;16.80;85.02;95417.00;4375910;32;20254;-63
2023/06/06 04:28:18;;;;;;;1.53;1.43;;;;;;;16.93;85.23;95409.78;4358826;32;20295;-63
2023/06/06 04:30:51;;;;;;;1.37;1.27;;;;;;;16.80;84.75;95419.69;4354118;32;20185;-63
2023/06/06 04:33:19;;;;;;;1.07;1.07;;;;;;;16.87;83.98;95414.56;4369091;32;20204;-64
2023/06/06 04:35:46;;;;;;;1.80;1.70;;;;;;;16.92;84.01;95410.91;4369718;32;20230;-64
2023/06/06 04:38:18;;;;;;;1.27;1.17;;;;;;;16.82;81.96;95422.84;4376872;32;20214;-64
2023/06/06 04:40:45;;;;;;;1.70;1.60;;;;;;;16.70;80.98;95418.19;4374907;32;20188;-63
2023/06/06 04:43:17;;;;;;;1.00;1.00;;;;;;;16.61;82.01;95425.50;4373353;32;20197;-63
2023/06/06 04:45:45;;;;;;;1.73;1.63;;;;;;;16.50;83.21;95411.72;4349867;32;20216;-63
2023/06/06 04:48:14;;;;;;;0.97;0.97;;;;;;;16.30;84.48;95420.56;4358907;32;20283;-63
2023/06/06 04:50:39;;;;;;;0.80;0.80;;;;;;;16.19;83.07;95422.06;4368649;32;20223;-63
2023/06/06 04:53:05;;;;;;;2.03;1.93;;;;;;;16.46;84.65;95432.22;4368113;32;20188;-63
2023/06/06 04:55:31;;;;;;;1.47;1.47;;;;;;;16.50;82.63;95430.47;4338145;32;20197;-63
2023/06/06 04:57:58;;;;;;;0.77;0.77;;;;;;;16.55;81.59;95437.53;4365166;32;20337;-64
2023/06/06 05:00:26;;;;;;;1.57;1.57;;;;;;;16.62;83.46;95431.66;4378001;32;20274;-63
2023/06/06 05:02:57;;;;;;;0.90;0.90;;;;;;;16.78;82.02;95438.00;4369310;32;20193;-64
2023/06/06 05:05:26;;;;;;;2.03;1.53;;;;;;;16.83;81.48;95432.44;4379026;32;20196;-64
2023/06/06 05:07:51;;;;;;;1.23;1.13;;;;;;;16.96;81.96;95442.06;4348370;32;20302;-64
2023/06/06 05:10:18;;;;;;;1.03;1.03;;;;;;;16.79;79.21;95443.03;4327960;32;20257;-63
2023/06/06 05:12:45;;;;;;;1.43;1.30;;;;;;;16.81;82.05;95445.38;4368887;32;20199;-64
2023/06/06 05:15:11;;;;;;;1.70;1.60;;;;;;;16.45;81.48;95448.63;4356786;32;20181;-63
2023/06/06 05:17:53;;;;;;;1.47;1.47;;;;;;;16.52;83.75;95450.78;4362534;32;20184;-63
2023/06/06 05:20:27;;;;;;;3.33;1.83;;;;;;;16.47;81.77;95449.09;4368281;32;20215;-63
2023/06/06 05:22:54;;;;;;;1.60;1.60;;;;;;;16.63;82.40;95457.31;4376222;32;20248;-63
2023/06/06 05:25:20;;;;;;;1.43;1.43;;;;;;;16.67;83.79;95458.25;4369318;32;20216;-63
2023/06/06 05:27:48;;;;;;;1.27;1.23;;;;;;;16.68;81.74;95454.47;4373413;32;20245;-64
2023/06/06 05:30:14;;;;;;;2.07;1.90;;;;;;;16.56;82.57;95457.06;4367485;32;20263;-63
2023/06/06 05:32:41;;;;;;;1.27;0.93;;;;;;;16.46;81.73;95459.00;4353193;32;20194;-64
2023/06/06 05:35:09;;;;;;;1.90;1.80;;;;;;;16.49;83.41;95450.34;4366823;32;20202;-64
2023/06/06 05:37:41;;;;;;;1.13;1.13;;;;;;;16.50;82.65;95445.75;4375844;32;20297;-64
2023/06/06 05:40:28;;;;;;;1.20;1.20;;;;;;;16.37;81.97;95461.00;4372180;32;20189;-63
2023/06/06 05:42:56;;;;;;;1.60;1.60;;;;;;;16.39;81.70;95464.13;4366867;32;20204;-64
2023/06/06 05:45:23;;;;;;;2.20;1.77;;;;;;;16.32;83.20;95471.88;4350605;32;20248;-64
2023/06/06 05:47:48;;;;;;;2.50;2.30;;;;;;;16.42;82.15;95468.03;4374414;32;20214;-64
2023/06/06 05:50:14;;;;;;;1.63;1.53;;;;;;;16.37;81.30;95469.03;4387794;32;20209;-63
2023/06/06 05:52:44;;;;;;;5.33;1.47;;;;;;;16.40;80.93;95468.38;4374538;32;20297;-63
2023/06/06 05:55:45;;;;;;;2.03;1.93;;;;;;;16.44;81.37;95463.91;4377941;32;20218;-64
2023/06/06 05:58:11;;;;;;;1.23;1.23;;;;;;;16.38;83.30;95465.22;4359527;32;20188;-64
2023/06/06 06:00:38;;;;;;;2.00;1.90;;;;;;;16.45;83.76;95462.03;4348972;32;20215;-64
2023/06/06 06:03:15;;;;;;;14.60;2.80;;;;;;;16.52;84.03;95467.66;4373390;32;20189;-63
2023/06/06 06:05:43;;;;;;;2.00;1.90;;;;;;;16.46;82.08;95464.38;4374005;32;20204;-64
2023/06/06 06:08:09;;;;;;;5.17;3.53;;;;;;;16.54;83.33;95464.63;4366657;32;20200;-64
2023/06/06 06:10:36;;;;;;;5.87;2.23;;;;;;;16.52;81.38;95470.31;4360822;32;20227;-64
2023/06/06 06:13:06;;;;;;;2.80;2.60;;;;;;;16.33;80.52;95468.09;4318822;32;20208;-64
2023/06/06 06:15:34;;;;;;;3.40;3.20;;;;;;;16.50;82.28;95467.19;4344533;32;20247;-63
2023/06/06 06:18:05;;;;;;;3.20;3.00;;;;;;;16.54;82.39;95468.09;4349961;32;20207;-63
2023/06/06 06:20:32;;;;;;;3.10;2.90;;;;;;;16.47;80.80;95475.88;4348699;32;20357;-64
2023/06/06 06:22:58;;;;;;;2.43;2.33;;;;;;;16.40;82.39;95465.69;4374971;32;20282;-64
2023/06/06 06:25:24;;;;;;;5.53;2.70;;;;;;;16.15;82.20;95470.12;4374755;32;20206;-64
2023/06/06 06:27:51;;;;;;;2.77;2.53;;;;;;;16.19;82.98;95474.81;4373215;32;20231;-63
2023/06/06 06:30:20;;;;;;;5.23;3.33;;;;;;;16.14;81.40;95473.13;4375315;32;20200;-63
2023/06/06 06:32:46;;;;;;;1.90;1.90;;;;;;;16.20;84.07;95479.84;4353500;32;20197;-64
2023/06/06 06:35:15;;;;;;;2.97;2.77;;;;;;;16.40;80.81;95471.06;4366243;32;20227;-64
2023/06/06 06:37:42;;;;;;;6.73;3.53;;;;;;;16.46;81.23;95479.66;4352462;32;20256;-64
2023/06/06 06:40:09;;;;;;;2.60;2.50;;;;;;;16.34;82.30;95484.94;4357391;32;20263;-64
2023/06/06 06:42:42;;;;;;;7.57;3.50;;;;;;;16.37;81.41;95484.31;4347670;32;20196;-63
2023/06/06 06:45:12;;;;;;;4.63;2.67;;;;;;;16.27;81.80;95484.66;4366394;32;20206;-63
2023/06/06 06:47:40;;;;;;;2.00;1.90;;;;;;;16.14;81.37;95483.81;4375203;32;20181;-64
2023/06/06 06:50:11;;;;;;;2.40;2.30;;;;;;;16.04;81.66;95494.88;4361143;32;20197;-64
2023/06/06 06:52:39;;;;;;;3.53;3.23;;;;;;;15.86;82.73;95488.06;4347629;32;20205;-64
2023/06/06 06:55:07;;;;;;;1.63;1.63;;;;;;;16.04;82.68;95487.63;4364509;32;20203;-63
2023/06/06 06:57:33;;;;;;;1.83;1.83;;;;;;;16.13;81.46;95495.63;4345945;32;20196;-63
2023/06/06 07:00:13;;;;;;;13.23;7.73;;;;;;;15.95;81.84;95496.84;4374772;32;20193;-65
2023/06/06 07:02:42;;;;;;;4.80;4.40;;;;;;;15.76;83.08;95499.91;4365929;32;20200;-64
2023/06/06 07:05:08;;;;;;;3.67;2.23;;;;;;;15.83;83.00;95497.50;4370102;32;20223;-64
2023/06/06 07:07:56;;;;;;;3.63;2.47;;;;;;;15.60;83.37;95496.97;4375510;32;20197;-64
2023/06/06 07:10:25;;;;;;;1.93;1.83;;;;;;;15.81;82.65;95495.16;4368021;32;20272;-64
2023/06/06 07:12:56;;;;;;;4.63;2.80;;;;;;;15.68;83.28;95501.50;4365365;32;20197;-64
2023/06/06 07:15:22;;;;;;;2.77;2.50;;;;;;;15.82;82.67;95499.41;4345781;32;20247;-63
2023/06/06 07:17:51;;;;;;;2.57;2.20;;;;;;;15.91;82.60;95499.38;4369956;32;20227;-63
2023/06/06 07:20:23;;;;;;;2.43;2.23;;;;;;;16.00;82.06;95507.38;4333896;32;20252;-63
2023/06/06 07:22:56;;;;;;;2.80;2.30;;;;;;;15.93;82.09;95504.41;4376774;32;20211;-62
2023/06/06 07:25:25;;;;;;;2.67;2.47;;;;;;;16.40;81.61;95500.50;4374390;32;20216;-62
2023/06/06 07:27:54;;;;;;;1.70;1.70;;;;;;;16.61;80.61;95500.53;4359276;32;20271;-62
2023/06/06 07:30:21;;;;;;;1.53;1.53;;;;;;;16.72;80.36;95496.34;4380496;32;20219;-60
2023/06/06 07:32:50;;;;;;;2.67;2.47;;;;;;;17.05;79.61;95498.25;4347693;32;20277;-62
2023/06/06 07:35:22;;;;;;;2.00;2.00;;;;;;;17.25;78.89;95496.69;4371560;32;20199;-62
2023/06/06 07:37:48;;;;;;;1.57;1.47;;;;;;;17.35;77.21;95502.41;4381480;32;20211;-62
2023/06/06 07:40:18;;;;;;;2.47;2.10;;;;;;;17.34;78.00;95506.19;4376679;32;20302;-62
2023/06/06 07:42:46;;;;;;;1.90;1.83;;;;;;;17.37;77.59;95499.38;4362368;32;20249;-62
2023/06/06 07:45:13;;;;;;;2.80;2.47;;;;;;;17.32;76.54;95494.22;4367204;32;20246;-62
2023/06/06 07:47:43;;;;;;;2.40;2.30;;;;;;;17.37;77.52;95494.81;4368854;32;20203;-63
2023/06/06 07:50:10;;;;;;;2.30;2.20;;;;;;;17.34;76.85;95492.00;4384977;32;20204;-62
2023/06/06 07:52:43;;;;;;;2.10;2.00;;;;;;;17.23;77.19;95494.31;4371835;32;20248;-62
2023/06/06 07:55:14;;;;;;;1.87;1.77;;;;;;;17.24;77.36;95489.75;4371178;32;20203;-62
2023/06/06 07:57:41;;;;;;;1.40;1.40;;;;;;;17.36;77.24;95497.81;4374133;32;20203;-62
2023/06/06 08:00:10;;;;;;;1.50;1.40;;;;;;;17.38;76.62;95492.91;4345790;32;20316;-62
2023/06/06 08:02:37;;;;;;;1.40;1.40;;;;;;;17.25;77.16;95505.47;4375873;32;20219;-62
2023/06/06 08:05:03;;;;;;;1.80;1.70;;;;;;;17.44;77.25;95488.91;4340466;32;20188;-62
2023/06/06 08:07:32;;;;;;;0.73;0.73;;;;;;;17.34;76.98;95494.69;4357784;32;20188;-62
2023/06/06 08:09:59;;;;;;;1.33;1.23;;;;;;;17.34;77.36;95495.47;4356779;32;20256;-62
2023/06/06 08:12:25;;;;;;;1.80;1.70;;;;;;;17.14;76.62;95497.09;4360479;32;20260;-62
2023/06/06 08:14:53;;;;;;;2.13;1.93;;;;;;;17.23;76.35;95493.53;4372388;32;20192;-62
2023/06/06 08:17:20;;;;;;;1.23;1.23;;;;;;;17.17;76.81;95496.44;4329724;32;20216;-62
2023/06/06 08:19:47;;;;;;;1.30;1.30;;;;;;;17.15;76.37;95492.50;4344261;32;20268;-62
2023/06/06 08:22:12;;;;;;;1.47;1.37;;;;;;;17.10;76.62;95495.38;4365225;32;20263;-62
2023/06/06 08:24:41;;;;;;;0.93;0.93;;;;;;;17.15;76.48;95490.59;4346478;32;20232;-62
2023/06/06 08:27:10;;;;;;;1.53;1.07;;;;;;;17.24;76.72;95489.75;4370619;32;20205;-62
2023/06/06 08:29:35;;;;;;;1.33;1.33;;;;;;;16.94;76.10;95502.47;4345107;32;20214;-61
2023/06/06 08:32:04;;;;;;;0.80;0.80;;;;;;;16.97;76.29;95501.81;4361705;32;20200;-62
2023/06/06 08:34:30;;;;;;;1.33;1.27;;;;;;;17.11;77.81;95502.31;4390284;32;20188;-62
2023/06/06 08:36:55;;;;;;;1.57;1.57;;;;;;;17.05;77.30;95493.69;4353156;32;20197;-61
2023/06/06 08:39:22;;;;;;;1.00;1.00;;;;;;;17.26;76.08;95498.22;4358283;32;20197;-62
2023/06/06 08:41:55;;;;;;;0.67;0.67;;;;;;;17.24;76.81;95505.84;4343399;32;20213;-61
2023/06/06 08:44:24;;;;;;;1.10;1.07;;;;;;;17.38;75.83;95500.94;4362287;32;20212;-61
2023/06/06 08:46:55;;;;;;;1.57;1.57;;;;;;;17.40;77.42;95493.34;4368266;32;20201;-62
2023/06/06 08:49:21;;;;;;;0.70;0.70;;;;;;;17.32;75.60;95502.25;4367534;32;20250;-63
2023/06/06 08:51:51;;;;;;;0.90;0.90;;;;;;;16.96;75.71;95493.00;4371865;32;20193;-63
2023/06/06 08:54:19;;;;;;;1.00;1.00;;;;;;;16.82;76.33;95495.19;4353285;32;20320;-62
2023/06/06 08:56:48;;;;;;;1.07;1.07;;;;;;;16.56;77.18;95491.88;4370407;32;20255;-62
2023/06/06 08:59:20;;;;;;;0.63;0.63;;;;;;;16.63;77.62;95492.12;4386698;32;20220;-63
2023/06/06 09:01:50;;;;;;;0.93;0.93;;;;;;;16.98;77.05;95496.13;4357228;32;20213;-62
2023/06/06 09:04:17;;;;;;;0.83;0.83;;;;;;;17.04;76.59;95496.72;4342448;32;20191;-62
2023/06/06 09:06:46;;;;;;;1.10;1.10;;;;;;;16.97;76.67;95499.16;4378116;32;20260;-62
2023/06/06 09:09:19;;;;;;;1.93;1.83;;;;;;;16.99;76.26;95502.28;4373329;32;20224;-62
2023/06/06 09:11:45;;;;;;;0.83;0.83;;;;;;;16.77;76.90;95492.69;4372319;32;20197;-62
2023/06/06 09:14:11;;;;;;;1.00;1.00;;;;;;;16.65;77.41;95500.66;4368337;32;20202;-63
2023/06/06 09:16:38;;;;;;;1.03;0.67;;;;;;;16.80;77.45;95500.09;4358589;32;20197;-63
2023/06/06 09:19:08;;;;;;;1.07;1.07;;;;;;;16.83;77.07;95505.53;4365521;32;20287;-62
2023/06/06 09:21:35;;;;;;;1.23;1.23;;;;;;;16.76;77.32;95502.63;4366403;32;20231;-62
2023/06/06 09:24:01;;;;;;;1.90;1.80;;;;;;;16.58;77.79;95503.84;4372595;32;20192;-62
2023/06/06 09:26:31;;;;;;;1.40;1.30;;;;;;;16.52;77.95;95504.34;4359986;32;20211;-62
2023/06/06 09:29:07;;;;;;;0.70;0.70;;;;;;;16.59;78.16;95501.94;4339152;32;20268;-63
2023/06/06 09:31:38;;;;;;;1.13;1.13;;;;;;;16.91;76.71;95506.59;4360467;32;20223;-63
2023/06/06 09:34:06;;;;;;;3.50;1.40;;;;;;;17.09;75.85;95502.63;4348121;32;20196;-62
2023/06/06 09:36:47;;;;;;;0.90;0.90;;;;;;;17.17;75.81;95501.78;4354190;32;20188;-63
2023/06/06 09:39:16;;;;;;;1.00;1.00;;;;;;;17.11;75.42;95500.41;4364083;32;20328;-63
2023/06/06 09:41:45;;;;;;;0.57;0.57;;;;;;;17.49;73.97;95491.34;4366353;32;20192;-63
2023/06/06 09:44:20;;;;;;;0.70;0.70;;;;;;;17.77;73.22;95489.63;4347236;32;20219;-62
2023/06/06 09:47:01;;;;;;;0.63;0.63;;;;;;;17.71;70.89;95493.66;4381218;32;20220;-62
2023/06/06 09:49:40;;;;;;;0.70;0.70;;;;;;;17.87;71.46;95489.19;4352454;32;20193;-62
2023/06/06 09:52:12;;;;;;;0.77;0.77;;;;;;;18.13;70.39;95490.75;4355751;32;20185;-62
2023/06/06 09:54:43;;;;;;;3.47;0.57;;;;;;;18.39;70.93;95490.38;4374796;32;20233;-62
2023/06/06 09:57:13;;;;;;;0.87;0.87;;;;;;;18.28;69.62;95487.41;4371998;32;20254;-63
2023/06/06 09:59:39;;;;;;;0.67;0.67;;;;;;;18.46;68.60;95488.72;4375614;32;20240;-62
2023/06/06 10:02:06;;;;;;;0.40;0.40;;;;;;;18.61;69.27;95481.87;4390717;32;20203;-60
2023/06/06 10:04:33;;;;;;;0.60;0.60;;;;;;;18.66;68.24;95470.88;4377075;32;20260;-62
2023/06/06 10:07:02;;;;;;;2.07;0.93;;;;;;;18.79;68.46;95477.00;4387662;32;20271;-62
2023/06/06 10:09:28;;;;;;;0.40;0.40;;;;;;;18.97;68.47;95478.25;4376305;32;20271;-62
2023/06/06 10:11:54;;;;;;;0.83;0.83;;;;;;;19.09;67.09;95486.28;4376148;32;20250;-62
2023/06/06 10:14:21;;;;;;;1.90;0.83;;;;;;;18.79;66.14;95485.06;4371856;32;20192;-63
2023/06/06 10:16:47;;;;;;;0.80;0.80;;;;;;;18.95;67.23;95472.44;4373522;32;20237;-63
2023/06/06 10:19:13;;;;;;;0.47;0.47;;;;;;;19.12;66.29;95480.19;4387622;32;20251;-62
2023/06/06 10:21:40;;;;;;;0.60;0.60;;;;;;;19.22;65.29;95474.34;4374347;32;20193;-62
2023/06/06 10:24:06;;;;;;;0.43;0.43;;;;;;;19.29;66.65;95472.97;4377960;32;20253;-62
2023/06/06 10:26:45;;;;;;;0.57;0.57;;;;;;;19.14;66.56;95474.47;4371350;32;20192;-62
2023/06/06 10:29:21;;;;;;;0.60;0.60;;;;;;;19.28;65.05;95476.78;4373429;32;20188;-63
2023/06/06 10:32:12;;;;;;;0.67;0.60;;;;;;;19.38;64.06;95465.50;4376124;32;20197;-62
2023/06/06 10:34:40;;;;;;;0.30;0.30;;;;;;;19.52;61.32;95466.69;4375319;32;20197;-63
2023/06/06 10:37:22;;;;;;;0.80;0.80;;;;;;;19.63;61.68;95475.03;4377119;32;20199;-62
2023/06/06 10:40:00;;;;;;;1.20;1.10;;;;;;;19.64;63.04;95467.72;4374833;32;20244;-62
2023/06/06 10:42:40;;;;;;;0.67;0.67;;;;;;;19.49;63.21;95469.25;4369530;32;20261;-62
2023/06/06 10:45:09;;;;;;;0.63;0.63;;;;;;;19.63;64.21;95472.34;4375466;32;20206;-63
2023/06/06 10:47:39;;;;;;;0.87;0.87;;;;;;;19.57;63.14;95471.00;4376255;32;20215;-62
2023/06/06 10:50:13;;;;;;;1.47;1.27;;;;;;;19.75;62.92;95466.84;4375796;32;20184;-62
2023/06/06 10:52:55;;;;;;;0.40;0.40;;;;;;;19.89;61.99;95469.91;4372409;32;20195;-63
2023/06/06 10:55:20;;;;;;;0.40;0.40;;;;;;;19.82;61.43;95472.41;4373242;32;20200;-63
2023/06/06 10:58:16;;;;;;;0.60;0.60;;;;;;;19.70;61.47;95477.12;4373927;32;20211;-63
2023/06/06 11:00:43;;;;;;;1.40;0.70;;;;;;;19.69;62.35;95465.56;4384057;32;20192;-62
2023/06/06 11:03:13;;;;;;;0.20;0.20;;;;;;;19.87;62.08;95461.38;4372815;32;20233;-63
2023/06/06 11:06:01;;;;;;;1.00;1.00;;;;;;;19.90;60.04;95460.69;4375401;32;20184;-62
2023/06/06 11:08:56;;;;;;;0.60;0.60;;;;;;;19.94;58.65;95457.31;4374033;32;20197;-62
2023/06/06 11:11:28;;;;;;;0.43;0.43;;;;;;;20.08;57.70;95460.31;4374673;32;20189;-62
2023/06/06 11:14:12;;;;;;;0.60;0.60;;;;;;;19.98;57.66;95460.84;4374697;32;20193;-62
2023/06/06 11:16:40;;;;;;;0.50;0.50;;;;;;;20.08;56.24;95457.63;4387165;32;20192;-62
2023/06/06 11:19:12;;;;;;;0.50;0.50;;;;;;;19.91;58.19;95461.47;4375689;32;20192;-62
2023/06/06 11:21:38;;;;;;;1.27;1.20;;;;;;;19.99;56.72;95457.03;4370509;32;20204;-63
2023/06/06 11:24:11;;;;;;;0.53;0.53;;;;;;;20.15;57.39;95455.88;4376794;32;20266;-62
2023/06/06 11:26:38;;;;;;;1.23;0.93;;;;;;;20.20;55.96;95450.19;4375514;32;20207;-62
2023/06/06 11:29:05;;;;;;;0.50;0.50;;;;;;;20.21;55.90;95453.69;4375945;32;20197;-62
2023/06/06 11:31:32;;;;;;;0.77;0.77;;;;;;;20.35;56.08;95448.63;4375736;32;20189;-62
2023/06/06 11:34:07;;;;;;;0.97;0.97;;;;;;;20.22;56.92;95452.53;4376494;32;20215;-63
2023/06/06 11:36:40;;;;;;;1.43;1.33;;;;;;;20.12;57.23;95442.34;4374912;32;20188;-62
2023/06/06 11:39:07;;;;;;;0.83;0.83;;;;;;;20.29;56.81;95444.63;4376944;32;20235;-61
2023/06/06 11:41:40;;;;;;;0.40;0.40;;;;;;;20.34;56.57;95441.66;4375180;32;20197;-62
2023/06/06 11:44:05;;;;;;;0.63;0.63;;;;;;;20.36;56.16;95435.94;4374198;32;20219;-62
2023/06/06 11:46:49;;;;;;;1.47;0.93;;;;;;;20.29;56.73;95439.25;4374786;32;20200;-62